createdAt,value
2018-12-30T00:00:11.550Z,5.90
2018-12-30T00:06:15.783Z,5.42
2018-12-30T00:12:20.343Z,5.83
2018-12-30T00:18:24.705Z,5.95
2018-12-30T00:24:28.921Z,6.00
2018-12-30T00:30:33.293Z,5.50
2018-12-30T00:36:37.554Z,6.87
2018-12-30T00:42:42.265Z,5.47
2018-12-30T00:48:46.564Z,4.97
2018-12-30T00:54:50.820Z,5.47
2018-12-30T01:00:55.033Z,5.85
2018-12-30T01:06:59.309Z,5.80
2018-12-30T01:13:03.579Z,6.63
2018-12-30T01:19:07.841Z,5.62
2018-12-30T01:25:12.222Z,5.65
2018-12-30T01:31:16.416Z,4.80
2018-12-30T01:37:20.685Z,6.67
2018-12-30T01:43:24.938Z,6.37
2018-12-30T01:49:29.121Z,6.20
2018-12-30T01:55:33.574Z,6.20
2018-12-30T02:01:37.944Z,5.60
2018-12-30T02:07:42.113Z,5.70
2018-12-30T02:13:46.383Z,5.80
2018-12-30T02:19:50.649Z,5.87
2018-12-30T02:25:54.936Z,4.40
2018-12-30T02:31:59.152Z,6.67
2018-12-30T02:38:03.426Z,9.50
2018-12-30T02:44:07.905Z,8.83
2018-12-30T02:50:12.095Z,6.70
2018-12-30T02:56:16.295Z,6.30
2018-12-30T03:02:20.551Z,6.77
2018-12-30T03:08:25.027Z,5.80
2018-12-30T03:14:29.289Z,6.80
2018-12-30T03:20:33.551Z,7.07
2018-12-30T03:26:37.777Z,6.87
2018-12-30T03:32:41.961Z,7.87
2018-12-30T03:38:46.237Z,9.17
2018-12-30T03:44:50.932Z,10.67
2018-12-30T03:50:55.295Z,9.63
2018-12-30T03:56:59.556Z,11.60
2018-12-30T04:03:04.073Z,10.00
2018-12-30T04:09:08.526Z,9.57
2018-12-30T04:15:12.767Z,9.90
2018-12-30T04:21:16.999Z,10.03
2018-12-30T04:27:23.823Z,10.40
2018-12-30T04:33:35.941Z,11.03
2018-12-30T04:39:40.143Z,9.73
2018-12-30T04:45:44.405Z,9.80
2018-12-30T04:51:48.655Z,9.97
2018-12-30T04:57:52.839Z,10.90
2018-12-30T05:03:57.185Z,10.40
2018-12-30T05:10:01.402Z,10.20
2018-12-30T05:16:06.839Z,13.23
2018-12-30T05:22:14.019Z,13.40
2018-12-30T05:28:18.279Z,12.60
2018-12-30T05:34:22.482Z,14.80
2018-12-30T05:40:26.758Z,14.17
2018-12-30T05:46:31.537Z,18.33
2018-12-30T05:52:41.740Z,16.00
2018-12-30T05:58:41.650Z,13.97
2018-12-30T06:04:45.910Z,15.97
2018-12-30T06:10:50.198Z,14.50
2018-12-30T06:16:54.422Z,15.30
2018-12-30T06:22:58.614Z,15.20
2018-12-30T06:29:03.071Z,17.00
2018-12-30T06:35:07.354Z,20.23
2018-12-30T06:41:11.557Z,15.10
2018-12-30T06:47:15.743Z,15.07
2018-12-30T06:53:19.975Z,17.37
2018-12-30T06:59:24.193Z,19.10
2018-12-30T07:05:28.381Z,16.00
2018-12-30T07:11:32.568Z,15.97
2018-12-30T07:17:36.753Z,15.57
2018-12-30T07:23:40.955Z,14.90
2018-12-30T07:29:45.167Z,16.50
2018-12-30T07:35:49.583Z,20.77
2018-12-30T07:41:54.773Z,20.67
2018-12-30T07:47:59.152Z,18.67
2018-12-30T07:54:03.375Z,15.23
2018-12-30T08:00:07.889Z,17.13
2018-12-30T08:06:12.069Z,20.53
2018-12-30T08:12:16.483Z,21.60
2018-12-30T08:18:20.708Z,20.63
2018-12-30T08:24:24.944Z,22.03
2018-12-30T08:30:29.156Z,27.20
2018-12-30T08:36:33.343Z,25.73
2018-12-30T08:42:37.535Z,25.15
2018-12-30T08:48:41.814Z,26.70
2018-12-30T08:54:46.053Z,22.70
2018-12-30T09:00:53.605Z,25.70
2018-12-30T09:06:57.826Z,33.13
2018-12-30T09:13:03.285Z,27.57
2018-12-30T09:19:07.596Z,25.67
2018-12-30T09:25:11.773Z,21.37
2018-12-30T09:31:16.091Z,26.02
2018-12-30T09:37:20.274Z,31.80
2018-12-30T09:43:24.463Z,30.07
2018-12-30T09:49:28.631Z,32.53
2018-12-30T09:55:32.819Z,25.45
2018-12-30T10:01:38.351Z,20.90
2018-12-30T10:07:42.603Z,22.48
2018-12-30T10:13:46.784Z,31.20
2018-12-30T10:19:51.053Z,33.97
2018-12-30T10:25:55.255Z,33.02
2018-12-30T10:31:59.801Z,24.75
2018-12-30T10:38:04.075Z,23.22
2018-12-30T10:44:08.559Z,22.00
2018-12-30T10:50:12.798Z,23.05
2018-12-30T10:56:16.959Z,23.07
2018-12-30T11:02:21.207Z,21.70
2018-12-30T11:08:25.431Z,21.80
2018-12-30T11:14:29.627Z,20.43
2018-12-30T11:20:33.830Z,20.50
2018-12-30T11:26:38.022Z,22.10
2018-12-30T11:32:42.305Z,20.65
2018-12-30T11:38:46.498Z,19.52
2018-12-30T11:44:50.676Z,21.50
2018-12-30T11:50:54.957Z,20.05
2018-12-30T11:56:59.134Z,21.50
2018-12-30T12:03:03.467Z,18.67
2018-12-30T12:09:08.430Z,18.17
2018-12-30T12:15:12.667Z,18.12
2018-12-30T12:21:16.889Z,18.07
2018-12-30T12:27:21.061Z,17.10
2018-12-30T12:33:25.413Z,18.07
2018-12-30T12:39:29.604Z,18.02
2018-12-30T12:45:33.949Z,18.00
2018-12-30T12:51:38.229Z,18.27
2018-12-30T12:57:42.503Z,16.55
2018-12-30T13:03:46.701Z,16.00
2018-12-30T13:09:50.891Z,16.70
2018-12-30T13:15:55.173Z,16.40
2018-12-30T13:21:59.351Z,18.45
2018-12-30T13:28:03.761Z,15.80
2018-12-30T13:34:08.139Z,16.77
2018-12-30T13:40:12.334Z,16.80
2018-12-30T13:46:16.560Z,17.52
2018-12-30T13:52:20.721Z,18.07
2018-12-30T13:58:24.911Z,18.98
2018-12-30T14:04:29.304Z,19.95
2018-12-30T14:10:33.833Z,20.50
2018-12-30T14:16:38.042Z,19.85
2018-12-30T14:22:43.113Z,16.50
2018-12-30T14:28:47.382Z,18.55
2018-12-30T14:34:51.612Z,19.52
2018-12-30T14:40:55.785Z,16.48
2018-12-30T14:46:59.970Z,16.42
2018-12-30T14:53:04.255Z,17.80
2018-12-30T14:59:08.418Z,14.40
2018-12-30T15:05:12.872Z,14.45
2018-12-30T15:11:17.044Z,15.38
2018-12-30T15:17:21.370Z,14.43
2018-12-30T15:23:25.572Z,14.83
2018-12-30T15:29:30.058Z,13.78
2018-12-30T15:35:34.237Z,24.85
2018-12-30T15:41:38.480Z,12.43
2018-12-30T15:47:42.669Z,17.80
2018-12-30T15:53:47.137Z,12.75
2018-12-30T15:59:51.345Z,11.38
2018-12-30T16:05:57.832Z,10.23
2018-12-30T16:12:01.529Z,9.65
2018-12-30T16:18:05.711Z,11.03
2018-12-30T16:24:09.908Z,9.30
2018-12-30T16:30:14.102Z,8.13
2018-12-30T16:36:21.389Z,7.95
2018-12-30T16:42:25.661Z,9.05
2018-12-30T16:48:29.973Z,9.73
2018-12-30T16:54:34.245Z,12.00
2018-12-30T17:00:38.446Z,13.30
2018-12-30T17:06:42.719Z,12.82
2018-12-30T17:12:47.001Z,15.83
2018-12-30T17:18:55.988Z,13.72
2018-12-30T17:24:57.076Z,15.30
2018-12-30T17:31:01.391Z,15.60
2018-12-30T17:37:05.694Z,15.75
2018-12-30T17:43:10.037Z,11.20
2018-12-30T17:49:14.248Z,15.68
2018-12-30T17:55:18.447Z,14.78
2018-12-30T18:01:22.720Z,18.25
2018-12-30T18:07:27.106Z,14.30
2018-12-30T18:13:31.298Z,16.95
2018-12-30T18:19:35.539Z,17.95
2018-12-30T18:25:39.722Z,20.75
2018-12-30T18:31:44.019Z,22.85
2018-12-30T18:37:49.802Z,25.72
2018-12-30T18:44:11.762Z,26.97
2018-12-30T18:50:33.616Z,22.13
2018-12-30T18:56:55.544Z,23.20
2018-12-30T19:02:59.727Z,22.90
2018-12-30T19:09:05.624Z,25.45
2018-12-30T19:15:09.827Z,27.77
2018-12-30T19:21:14.013Z,26.93
2018-12-30T19:27:18.207Z,22.67
2018-12-30T19:33:22.502Z,22.42
2018-12-30T19:39:44.844Z,25.80
2018-12-30T19:45:49.188Z,27.37
2018-12-30T19:51:53.703Z,21.77
2018-12-30T19:57:58.312Z,23.50
2018-12-30T20:04:02.999Z,21.35
2018-12-30T20:10:08.231Z,23.22
2018-12-30T20:16:12.728Z,22.48
2018-12-30T20:22:17.267Z,21.42
2018-12-30T20:28:21.857Z,22.13
2018-12-30T20:34:26.757Z,21.52
2018-12-30T20:40:31.672Z,22.75
2018-12-30T20:46:36.246Z,21.97
2018-12-30T20:52:45.137Z,20.68
2018-12-30T20:58:49.333Z,23.27
2018-12-30T21:04:53.589Z,22.17
2018-12-30T21:10:57.768Z,22.45
2018-12-30T21:17:02.009Z,24.05
2018-12-30T21:23:06.201Z,23.30
2018-12-30T21:29:10.467Z,25.05
2018-12-30T21:35:14.633Z,24.20
2018-12-30T21:41:18.853Z,24.35
2018-12-30T21:47:23.048Z,25.27
2018-12-30T21:53:27.222Z,26.25
2018-12-30T21:59:31.417Z,28.35
2018-12-30T22:05:35.681Z,29.25
2018-12-30T22:11:39.973Z,25.88
2018-12-30T22:17:44.226Z,23.50
2018-12-30T22:23:48.506Z,24.50
2018-12-30T22:29:52.702Z,25.62
2018-12-30T22:35:57.220Z,23.00
2018-12-30T22:42:01.436Z,21.75
2018-12-30T22:48:05.662Z,23.55
2018-12-30T22:54:10.015Z,22.00
2018-12-30T23:00:25.942Z,23.05
2018-12-30T23:06:30.126Z,19.30
2018-12-30T23:12:34.420Z,25.60
2018-12-30T23:18:38.614Z,27.93
2018-12-30T23:24:42.851Z,27.77
2018-12-30T23:30:47.038Z,27.80
2018-12-30T23:36:51.234Z,30.45
2018-12-30T23:42:55.440Z,30.00
2018-12-30T23:48:59.625Z,31.35
2018-12-30T23:55:03.976Z,29.18
